Time;durP1;ratioP1;P1;durP2;ratioP2;P2;SDS_P1;SDS_P2;PMS_P1;PMS_P2;Temp;Humidity;BMP_temperature;BMP_pressure;BME280_temperature;BME280_humidity;BME280_pressure;Samples;Min_cycle;Max_cycle;Signal;HPM_P1;HPM_P2
2022/12/26 00:00:58;;;;;;;32.35;10.48;;;;;;;6.13;59.99;100836.25;4906783;29;20154;-70
2022/12/26 00:03:24;;;;;;;30.47;9.07;;;;;;;6.33;59.48;100839.31;4906505;29;20036;-71
2022/12/26 00:05:49;;;;;;;23.08;9.55;;;;;;;6.22;59.86;100843.84;4906104;28;20054;-71
2022/12/26 00:08:15;;;;;;;23.38;9.77;;;;;;;6.22;59.72;100836.06;4907528;29;20102;-70
2022/12/26 00:10:40;;;;;;;31.95;11.00;;;;;;;6.29;59.50;100833.31;4907562;28;20137;-70
2022/12/26 00:13:06;;;;;;;26.83;10.63;;;;;;;6.33;59.26;100831.50;4906168;29;20976;-71
2022/12/26 00:15:32;;;;;;;24.10;8.60;;;;;;;6.50;58.90;100826.75;4906584;28;20544;-70
2022/12/26 00:17:57;;;;;;;27.63;10.70;;;;;;;6.49;58.80;100825.06;4906663;29;20051;-71
2022/12/26 00:20:23;;;;;;;21.00;9.07;;;;;;;6.34;59.65;100817.63;4906130;28;20079;-71
2022/12/26 00:22:48;;;;;;;30.35;10.77;;;;;;;6.34;59.30;100824.56;4906693;29;20023;-70
2022/12/26 00:25:14;;;;;;;23.15;9.45;;;;;;;6.44;59.17;100826.94;4904039;28;20051;-70
2022/12/26 00:27:40;;;;;;;25.67;9.05;;;;;;;6.52;59.04;100828.47;4905453;29;20038;-71
2022/12/26 00:30:08;;;;;;;22.33;8.55;;;;;;;6.57;58.62;100829.22;4905062;28;20046;-70
2022/12/26 00:32:33;;;;;;;24.90;9.25;;;;;;;6.50;59.03;100813.78;4906813;29;20456;-71
2022/12/26 00:34:59;;;;;;;21.73;8.20;;;;;;;6.58;58.87;100812.75;4905000;28;20071;-72
2022/12/26 00:37:24;;;;;;;22.20;8.32;;;;;;;6.46;58.98;100812.16;4907945;29;20122;-70
2022/12/26 00:39:50;;;;;;;16.88;7.80;;;;;;;6.51;58.95;100817.25;4905324;28;20051;-70
2022/12/26 00:42:15;;;;;;;19.65;7.38;;;;;;;6.58;58.61;100817.97;4906701;29;20579;-70
2022/12/26 00:44:41;;;;;;;28.17;9.23;;;;;;;6.50;58.88;100811.19;4908548;28;20819;-70
2022/12/26 00:47:06;;;;;;;23.00;8.55;;;;;;;6.56;58.86;100805.00;4910621;29;20050;-70
2022/12/26 00:49:32;;;;;;;20.77;7.93;;;;;;;6.57;58.73;100805.84;4910284;28;20079;-71
2022/12/26 00:51:58;;;;;;;20.48;7.80;;;;;;;6.55;58.64;100805.03;4908592;29;20039;-69
2022/12/26 00:54:23;;;;;;;21.58;7.35;;;;;;;6.48;58.97;100797.41;4906148;28;20043;-69
2022/12/26 00:56:49;;;;;;;22.48;7.55;;;;;;;6.51;59.24;100796.47;4910760;29;20119;-75
2022/12/26 00:59:14;;;;;;;19.92;8.35;;;;;;;6.41;58.95;100789.78;4910078;28;20166;-75
2022/12/26 01:01:40;;;;;;;17.63;7.57;;;;;;;6.26;59.60;100796.16;4911492;29;20291;-78
2022/12/26 01:04:05;;;;;;;20.25;8.05;;;;;;;6.37;59.05;100799.38;4927410;28;20051;-79
2022/12/26 01:06:31;;;;;;;17.63;7.60;;;;;;;6.22;59.62;100799.72;4936337;29;20050;-80
2022/12/26 01:08:58;;;;;;;22.10;8.38;;;;;;;6.40;59.25;100795.88;4919242;28;20269;-79
2022/12/26 01:11:42;;;;;;;17.55;8.23;;;;;;;6.47;58.71;100795.69;4906562;29;20135;-73
2022/12/26 01:14:11;;;;;;;21.20;8.35;;;;;;;6.34;59.29;100794.28;4905685;28;20311;-72
2022/12/26 01:16:37;;;;;;;20.65;9.00;;;;;;;6.35;59.20;100801.19;4892926;29;20545;-73
2022/12/26 01:19:03;;;;;;;22.30;8.25;;;;;;;6.45;58.80;100802.66;4895943;28;20211;-71
2022/12/26 01:21:29;;;;;;;17.27;7.10;;;;;;;6.36;59.05;100791.66;4910605;29;20078;-70
2022/12/26 01:23:54;;;;;;;21.52;7.88;;;;;;;6.38;58.88;100792.47;4906633;28;20069;-71
2022/12/26 01:26:20;;;;;;;24.02;9.13;;;;;;;6.08;59.68;100790.50;4910897;29;20036;-69
2022/12/26 01:28:47;;;;;;;21.45;7.85;;;;;;;5.91;60.12;100795.22;4906636;28;20659;-70
2022/12/26 01:31:13;;;;;;;21.48;7.70;;;;;;;6.17;59.38;100794.66;4910345;29;20548;-69
2022/12/26 01:33:38;;;;;;;20.55;7.85;;;;;;;6.22;59.04;100794.53;4904735;28;20032;-70
2022/12/26 01:36:04;;;;;;;19.58;7.15;;;;;;;6.07;59.97;100806.97;4891426;29;20090;-69
2022/12/26 01:38:29;;;;;;;23.25;7.82;;;;;;;6.18;59.44;100811.91;4890889;28;20123;-69
2022/12/26 01:43:48;;;;;;;19.10;7.32;;;;;;;6.02;59.60;100816.59;4908266;28;20269;-76
2022/12/26 01:46:15;;;;;;;19.27;6.82;;;;;;;5.88;60.70;100819.50;4911135;29;20995;-76
2022/12/26 01:48:40;;;;;;;20.13;7.03;;;;;;;6.04;60.33;100817.41;4908294;28;20028;-75
2022/12/26 01:51:06;;;;;;;21.40;7.90;;;;;;;6.13;59.86;100805.09;4891854;29;20286;-75
2022/12/26 01:53:38;;;;;;;21.05;7.65;;;;;;;5.68;61.62;100811.25;4889719;28;20411;-75
2022/12/26 01:56:05;;;;;;;;;;;;;;;5.94;60.51;100815.91;4888818;29;20648;-71
2022/12/26 01:58:36;;;;;;;17.88;6.93;;;;;;;5.70;61.14;100816.41;4889892;28;19918;-71
2022/12/26 02:01:05;;;;;;;18.53;7.13;;;;;;;5.85;60.92;100810.91;4890663;29;20401;-71
2022/12/26 02:06:16;;;;;;;19.00;7.95;;;;;;;5.86;60.70;100817.81;4890680;29;20058;-71
2022/12/26 02:08:43;;;;;;;24.83;9.30;;;;;;;5.96;60.54;100816.72;4891137;28;20850;-71
2022/12/26 02:11:17;;;;;;;20.13;8.73;;;;;;;5.96;60.26;100813.28;4908236;29;20058;-72
2022/12/26 02:13:43;;;;;;;23.83;9.32;;;;;;;6.13;60.00;100813.75;4904760;28;20715;-71
2022/12/26 02:16:13;;;;;;;21.52;9.05;;;;;;;5.89;60.77;100822.94;4889693;29;20665;-70
2022/12/26 02:18:39;;;;;;;20.90;8.60;;;;;;;5.87;60.58;100825.56;4887479;28;20474;-70
2022/12/26 02:21:12;;;;;;;23.10;8.55;;;;;;;5.92;60.76;100827.19;4905326;29;20492;-70
2022/12/26 02:23:57;;;;;;;;;;;;;;;6.06;60.22;100822.56;4889128;28;20435;-70
2022/12/26 02:26:47;;;;;;;23.13;8.27;;;;;;;5.76;61.23;100818.88;4909028;29;20081;-71
2022/12/26 02:29:32;;;;;;;22.45;8.02;;;;;;;6.14;60.19;100815.47;4902001;28;20091;-70
2022/12/26 02:32:10;;;;;;;18.92;7.78;;;;;;;6.04;59.85;100811.38;4889401;29;20453;-70
2022/12/26 02:34:57;;;;;;;22.20;9.00;;;;;;;5.95;60.72;100812.44;4901812;28;20646;-72
2022/12/26 02:37:47;;;;;;;20.63;8.68;;;;;;;5.99;60.22;100805.41;4918596;29;20074;-71
2022/12/26 02:40:20;;;;;;;16.02;7.97;;;;;;;5.99;60.20;100798.47;4907844;29;20454;-72
2022/12/26 02:42:58;;;;;;;16.65;7.53;;;;;;;5.77;60.78;100812.78;4906495;29;20330;-72
2022/12/26 02:48:28;;;;;;;15.15;6.60;;;;;;;5.79;60.52;100811.03;4910046;29;20520;-71
2022/12/26 03:13:09;;;;;;;16.95;7.75;;;;;;;5.59;61.51;100820.09;4906345;28;20048;-71
2022/12/26 03:17:18;;;;;;;21.77;8.27;;;;;;;5.52;61.99;100818.47;4899229;28;20103;-76
2022/12/26 03:18:18;;;;;;;21.98;8.38;;;;;;;5.80;61.25;100812.75;4869397;29;20063;-77
2022/12/26 03:20:45;;;;;;;20.50;8.95;;;;;;;5.25;63.09;100818.13;4893475;29;20075;-77
2022/12/26 03:23:16;;;;;;;18.58;8.05;;;;;;;5.82;61.57;100816.16;4911070;28;20295;-76
2022/12/26 03:28:34;;;;;;;22.35;8.73;;;;;;;5.69;61.68;100815.56;4909879;28;20784;-69
2022/12/26 03:31:05;;;;;;;17.73;7.07;;;;;;;5.52;62.45;100823.66;4909216;28;20032;-69
2022/12/26 03:36:55;;;;;;;17.33;7.05;;;;;;;6.00;60.92;100805.38;4908760;29;20054;-72
2022/12/26 04:20:46;;;;;;;13.88;5.30;;;;;;;5.45;62.76;100778.88;4911867;29;20046;-69
2022/12/26 04:46:30;;;;;;;12.57;6.07;;;;;;;5.91;61.76;100782.25;4893101;29;20058;-71
2022/12/26 04:51:41;;;;;;;14.32;6.70;;;;;;;5.88;61.71;100779.69;4909277;29;20035;-71
2022/12/26 04:54:06;;;;;;;12.02;6.47;;;;;;;5.81;61.95;100783.31;4909826;28;20044;-71
2022/12/26 04:56:32;;;;;;;20.42;8.50;;;;;;;5.90;62.11;100785.72;4910662;29;20047;-68
2022/12/26 04:58:58;;;;;;;15.77;8.10;;;;;;;5.92;61.86;100781.34;4908917;28;20325;-70
2022/12/26 05:09:52;;;;;;;17.80;8.65;;;;;;;5.83;61.78;100777.22;4910783;29;20109;-71
2022/12/26 05:12:18;;;;;;;15.80;7.72;;;;;;;6.07;61.38;100780.16;4908485;28;20073;-71
2022/12/26 05:14:44;;;;;;;15.98;8.48;;;;;;;6.04;61.42;100778.50;4905370;29;20030;-71
2022/12/26 05:31:00;;;;;;;20.85;10.73;;;;;;;6.01;61.64;100775.94;4890887;29;20048;-69
2022/12/26 05:36:12;;;;;;;14.95;8.80;;;;;;;6.23;60.63;100765.09;4891787;29;20035;-67
2022/12/26 05:38:39;;;;;;;19.83;9.75;;;;;;;6.04;61.36;100760.34;4890230;28;20139;-68
2022/12/26 05:41:05;;;;;;;15.88;9.25;;;;;;;6.28;60.63;100769.34;4893857;29;20032;-76
2022/12/26 05:43:30;;;;;;;18.13;9.60;;;;;;;6.23;60.76;100767.69;4892860;28;20052;-76
2022/12/26 05:45:57;;;;;;;16.00;8.85;;;;;;;6.06;61.36;100766.34;4891652;29;20761;-74
2022/12/26 05:48:22;;;;;;;16.42;9.93;;;;;;;6.18;61.32;100766.94;4876626;29;20048;-74
2022/12/26 05:50:47;;;;;;;23.63;10.63;;;;;;;6.06;61.28;100763.75;4890424;29;20043;-74
2022/12/26 05:53:13;;;;;;;17.23;9.35;;;;;;;5.94;61.98;100764.00;4891135;28;20844;-70
2022/12/26 05:55:39;;;;;;;18.42;10.55;;;;;;;5.94;61.79;100764.00;4887506;29;20021;-72
2022/12/26 05:58:04;;;;;;;17.63;9.77;;;;;;;5.91;62.11;100768.44;4899506;28;20052;-73
2022/12/26 06:00:30;;;;;;;20.73;10.60;;;;;;;6.26;60.94;100775.38;4911322;29;20054;-73
2022/12/26 06:02:58;;;;;;;17.80;9.27;;;;;;;6.21;61.07;100775.50;4909554;28;20048;-75
2022/12/26 06:05:23;;;;;;;21.23;10.55;;;;;;;5.84;61.97;100773.75;4910212;29;20097;-74
2022/12/26 06:07:49;;;;;;;19.77;10.95;;;;;;;6.01;62.11;100781.13;4908167;28;20083;-73
2022/12/26 06:10:14;;;;;;;20.20;10.38;;;;;;;6.12;61.43;100775.72;4911832;29;20047;-71
2022/12/26 06:12:40;;;;;;;18.67;9.50;;;;;;;6.05;61.95;100766.38;4906733;29;20040;-74
2022/12/26 06:15:06;;;;;;;17.95;10.32;;;;;;;5.89;61.81;100768.47;4910177;29;20118;-77
2022/12/26 06:17:31;;;;;;;21.88;10.80;;;;;;;6.05;61.90;100775.00;4909195;28;20054;-76
2022/12/26 06:19:57;;;;;;;20.45;10.38;;;;;;;6.22;61.11;100771.19;4909506;29;20035;-72
2022/12/26 06:22:22;;;;;;;22.88;9.57;;;;;;;6.13;61.38;100769.66;4908664;28;20509;-73
2022/12/26 06:24:48;;;;;;;23.70;11.07;;;;;;;6.01;61.68;100773.34;4908536;29;20164;-71
2022/12/26 06:27:13;;;;;;;24.77;12.13;;;;;;;5.39;63.46;100770.34;4907517;28;20043;-75
2022/12/26 06:29:39;;;;;;;21.75;11.18;;;;;;;6.15;61.30;100767.00;4888962;29;20063;-75
2022/12/26 06:32:04;;;;;;;22.83;11.18;;;;;;;5.89;62.21;100771.06;4889630;28;20287;-70
2022/12/26 06:34:30;;;;;;;22.63;11.48;;;;;;;5.67;62.76;100776.69;4884279;29;20130;-70
2022/12/26 06:36:55;;;;;;;24.65;11.45;;;;;;;5.60;63.07;100775.13;4888281;29;20154;-72
2022/12/26 06:39:22;;;;;;;24.65;12.05;;;;;;;5.45;63.85;100765.91;4889275;28;20343;-70
2022/12/26 06:41:48;;;;;;;23.50;11.10;;;;;;;5.66;63.34;100759.44;4889787;29;20076;-70
2022/12/26 06:44:13;;;;;;;26.27;12.68;;;;;;;6.07;62.27;100762.84;4887661;28;20043;-68
2022/12/26 06:46:39;;;;;;;23.25;11.52;;;;;;;6.18;61.18;100761.75;4885887;29;20322;-69
2022/12/26 06:49:07;;;;;;;26.13;13.48;;;;;;;6.03;61.89;100763.81;4888774;28;20056;-70
2022/12/26 06:51:36;;;;;;;25.23;12.90;;;;;;;6.28;61.09;100755.47;4888459;29;20115;-70
2022/12/26 06:54:02;;;;;;;25.30;12.88;;;;;;;6.18;61.41;100753.97;4888556;28;20168;-69
2022/12/26 06:56:28;;;;;;;21.83;11.75;;;;;;;6.19;61.24;100758.25;4890209;29;20096;-67
2022/12/26 06:59:00;;;;;;;24.98;13.32;;;;;;;6.03;61.84;100761.19;4885902;28;20152;-68
2022/12/26 07:01:28;;;;;;;29.37;13.33;;;;;;;6.02;62.06;100761.25;4889520;29;20047;-69
2022/12/26 07:03:55;;;;;;;25.65;13.93;;;;;;;5.38;63.53;100766.06;4899895;28;20048;-68
2022/12/26 07:06:27;;;;;;;23.70;12.98;;;;;;;6.45;60.74;100771.50;4908287;29;20048;-70
2022/12/26 07:08:56;;;;;;;30.77;14.15;;;;;;;6.27;61.01;100771.91;4890574;28;20080;-72
2022/12/26 07:11:25;;;;;;;24.40;13.10;;;;;;;5.93;61.72;100783.06;4889916;29;20039;-69
2022/12/26 07:13:52;;;;;;;25.42;13.48;;;;;;;6.03;61.31;100771.59;4885822;28;20076;-70
2022/12/26 07:16:17;;;;;;;33.15;14.48;;;;;;;5.81;61.69;100763.41;4889778;29;20131;-72
2022/12/26 07:18:43;;;;;;;24.95;12.25;;;;;;;6.05;61.38;100764.63;4888137;28;20094;-70
2022/12/26 07:21:11;;;;;;;22.20;12.98;;;;;;;5.77;61.68;100768.72;4890666;29;20035;-70
2022/12/26 07:23:37;;;;;;;24.67;12.65;;;;;;;6.48;59.62;100771.44;4900995;28;20055;-69
2022/12/26 07:26:03;;;;;;;23.52;12.55;;;;;;;6.26;60.13;100765.00;4873621;29;20036;-70
2022/12/26 07:28:29;;;;;;;21.98;12.13;;;;;;;6.12;60.55;100780.06;4887599;28;20051;-70
2022/12/26 07:30:56;;;;;;;25.05;13.40;;;;;;;5.97;61.03;100774.34;4889522;29;20210;-70
2022/12/26 07:33:22;;;;;;;23.77;12.25;;;;;;;5.82;61.75;100774.66;4898255;28;20051;-70
2022/12/26 07:35:48;;;;;;;26.40;11.70;;;;;;;5.66;62.17;100768.97;4905705;29;20217;-72
2022/12/26 07:38:14;;;;;;;22.70;12.10;;;;;;;5.44;62.41;100772.00;4907859;28;20341;-72
2022/12/26 07:40:40;;;;;;;27.05;11.75;;;;;;;5.98;60.87;100763.06;4905330;29;20035;-70
2022/12/26 07:43:06;;;;;;;23.27;12.23;;;;;;;5.55;62.61;100771.78;4904529;28;20051;-70
2022/12/26 07:45:31;;;;;;;24.85;11.48;;;;;;;5.85;60.81;100774.59;4904208;29;20155;-70
2022/12/26 07:47:58;;;;;;;19.77;12.10;;;;;;;5.76;61.69;100759.22;4920346;28;20047;-70
2022/12/26 07:50:25;;;;;;;24.13;10.95;;;;;;;5.94;60.88;100756.22;4909131;29;20035;-69
2022/12/26 07:52:51;;;;;;;23.80;12.05;;;;;;;6.09;60.41;100757.63;4905949;28;20596;-69
2022/12/26 07:55:17;;;;;;;22.42;11.27;;;;;;;5.91;61.03;100753.72;4910229;29;20414;-72
2022/12/26 07:57:43;;;;;;;23.10;13.35;;;;;;;5.77;61.53;100758.34;4907855;28;20438;-69
2022/12/26 08:00:09;;;;;;;30.75;11.85;;;;;;;5.91;61.24;100742.50;4911522;29;20488;-69
2022/12/26 08:02:38;;;;;;;23.60;11.32;;;;;;;6.11;60.38;100734.25;4907848;28;20519;-69
2022/12/26 08:05:04;;;;;;;24.40;11.55;;;;;;;5.84;60.75;100741.78;4911090;29;20536;-67
2022/12/26 08:07:29;;;;;;;20.88;11.95;;;;;;;5.81;60.97;100726.25;4909100;28;20640;-69
2022/12/26 08:09:55;;;;;;;18.63;9.45;;;;;;;6.05;60.05;100720.50;4911070;29;20039;-69
2022/12/26 08:12:23;;;;;;;18.75;9.75;;;;;;;6.32;59.79;100728.56;4905144;28;20044;-69
2022/12/26 08:14:49;;;;;;;18.08;9.68;;;;;;;6.01;59.91;100728.41;4891197;29;20514;-70
2022/12/26 08:17:15;;;;;;;20.50;10.65;;;;;;;6.14;59.88;100736.75;4875138;28;20082;-69
2022/12/26 08:19:41;;;;;;;18.63;10.02;;;;;;;6.68;58.02;100726.75;4891095;29;20036;-69
2022/12/26 08:22:07;;;;;;;21.05;9.93;;;;;;;6.18;59.29;100733.22;4892892;28;20449;-69
2022/12/26 08:24:33;;;;;;;18.05;9.65;;;;;;;6.14;59.61;100728.97;4890290;29;20032;-69
2022/12/26 08:26:58;;;;;;;21.05;10.93;;;;;;;5.95;59.85;100729.41;4908011;29;20114;-72
2022/12/26 08:29:24;;;;;;;21.05;10.05;;;;;;;6.08;59.65;100725.66;4888114;29;20431;-69
2022/12/26 08:31:49;;;;;;;21.00;9.70;;;;;;;6.11;59.59;100734.25;4889016;29;20474;-72
2022/12/26 08:34:15;;;;;;;22.25;9.48;;;;;;;6.31;59.39;100729.47;4889562;28;20052;-71
2022/12/26 08:36:40;;;;;;;22.23;9.23;;;;;;;6.02;59.93;100728.38;4891852;29;20047;-69
2022/12/26 08:39:06;;;;;;;20.98;9.30;;;;;;;5.99;60.08;100722.41;4893784;28;20066;-69
2022/12/26 08:41:31;;;;;;;17.33;8.60;;;;;;;6.15;59.36;100721.16;4893200;29;20047;-69
2022/12/26 08:43:57;;;;;;;16.23;9.57;;;;;;;6.16;59.34;100711.63;4907718;28;20039;-71
2022/12/26 08:46:23;;;;;;;20.70;9.57;;;;;;;6.67;58.10;100706.03;4922025;29;20052;-68
2022/12/26 08:48:49;;;;;;;18.35;9.52;;;;;;;6.51;58.42;100703.00;4906423;28;20175;-69
2022/12/26 08:51:21;;;;;;;16.98;7.70;;;;;;;6.19;58.96;100712.38;4909989;29;20180;-69
2022/12/26 08:53:48;;;;;;;15.73;8.15;;;;;;;6.60;58.42;100707.09;4908064;28;20047;-72
2022/12/26 08:56:20;;;;;;;17.30;7.35;;;;;;;7.26;56.36;100705.28;4909759;29;20629;-71
2022/12/26 08:58:45;;;;;;;;;;;;;;;6.79;56.98;100715.25;4910149;28;20052;-68
2022/12/26 09:01:14;;;;;;;14.40;7.60;;;;;;;6.56;57.68;100715.88;4910299;29;20502;-71
2022/12/26 09:03:40;;;;;;;13.27;8.43;;;;;;;6.34;58.46;100715.56;4907080;28;20047;-69
2022/12/26 09:06:06;;;;;;;12.75;7.93;;;;;;;5.90;60.18;100720.88;4909281;29;20039;-71
2022/12/26 09:08:33;;;;;;;13.40;8.05;;;;;;;6.53;58.02;100718.53;4908288;28;20052;-69
2022/12/26 09:11:05;;;;;;;15.18;8.57;;;;;;;6.42;58.58;100724.84;4908660;29;20437;-69
2022/12/26 09:13:31;;;;;;;13.02;6.63;;;;;;;6.27;59.17;100720.84;4908293;28;20051;-69
2022/12/26 09:16:11;;;;;;;12.65;7.35;;;;;;;6.13;59.47;100727.25;4907303;29;20986;-71
2022/12/26 09:18:37;;;;;;;18.80;7.70;;;;;;;6.08;59.15;100728.25;4903830;28;20142;-71
2022/12/26 09:21:05;;;;;;;12.65;6.55;;;;;;;5.86;60.26;100729.63;4906330;29;20138;-71
2022/12/26 09:23:31;;;;;;;9.85;6.78;;;;;;;5.95;59.74;100719.03;4902895;28;20576;-72
2022/12/26 09:26:10;;;;;;;14.55;6.53;;;;;;;6.22;58.92;100729.66;4906527;29;20035;-72
2022/12/26 09:28:36;;;;;;;13.60;6.63;;;;;;;6.22;58.86;100727.91;4906641;28;20047;-69
2022/12/26 09:31:04;;;;;;;12.90;6.75;;;;;;;5.92;59.45;100723.44;4909341;29;20043;-69
2022/12/26 09:33:32;;;;;;;11.70;5.95;;;;;;;6.35;58.28;100728.50;4906689;28;20135;-69
2022/12/26 09:35:57;;;;;;;18.80;7.35;;;;;;;5.99;59.60;100725.84;4883183;29;20041;-69
2022/12/26 09:38:23;;;;;;;13.27;5.30;;;;;;;6.00;59.36;100722.38;4896929;28;20047;-71
2022/12/26 09:40:59;;;;;;;20.08;7.45;;;;;;;6.02;59.10;100718.00;4904136;29;20028;-69
2022/12/26 09:43:57;;;;;;;14.15;6.45;;;;;;;6.38;58.47;100712.00;4891397;28;20127;-70
2022/12/26 09:46:41;;;;;;;14.93;6.80;;;;;;;5.81;60.67;100710.69;4868606;29;20058;-72
2022/12/26 09:49:09;;;;;;;13.30;7.25;;;;;;;5.93;60.24;100719.97;4887138;28;20047;-70
2022/12/26 09:51:36;;;;;;;16.17;6.80;;;;;;;6.21;59.11;100702.81;4885532;29;20036;-70
2022/12/26 09:54:06;;;;;;;13.18;6.72;;;;;;;5.65;60.59;100712.78;4882126;29;20040;-70
2022/12/26 09:56:37;;;;;;;12.18;7.72;;;;;;;5.97;60.77;100706.88;4885789;29;20032;-70
2022/12/26 09:59:15;;;;;;;14.07;7.18;;;;;;;5.71;61.28;100717.00;4886952;28;20054;-70
2022/12/26 10:01:42;;;;;;;18.15;7.03;;;;;;;6.27;59.91;100709.63;4887189;29;20923;-70
2022/12/26 10:04:21;;;;;;;16.23;6.97;;;;;;;5.75;61.23;100716.00;4903730;28;20079;-70
2022/12/26 10:06:56;;;;;;;16.60;7.80;;;;;;;5.34;62.44;100704.81;4903938;29;20079;-70
2022/12/26 10:09:52;;;;;;;12.48;6.82;;;;;;;6.21;59.83;100701.97;4904340;28;20082;-70
2022/12/26 10:12:40;;;;;;;15.50;8.38;;;;;;;6.19;60.45;100712.38;4904391;28;20110;-70
2022/12/26 10:15:38;;;;;;;18.40;8.18;;;;;;;5.63;61.91;100707.63;4903382;29;20043;-70
2022/12/26 10:18:28;;;;;;;18.20;7.35;;;;;;;6.07;60.70;100702.31;4901960;28;20081;-70
2022/12/26 10:21:19;;;;;;;12.77;8.10;;;;;;;5.67;61.97;100703.25;4905311;29;20048;-72
2022/12/26 10:23:55;;;;;;;13.20;7.27;;;;;;;5.79;61.50;100707.28;4898685;28;20090;-71
2022/12/26 10:26:35;;;;;;;18.13;7.55;;;;;;;5.64;62.35;100700.72;4905979;29;20305;-70
2022/12/26 10:29:07;;;;;;;15.48;7.63;;;;;;;5.63;62.68;100705.03;4906077;28;20795;-71
2022/12/26 10:31:40;;;;;;;20.13;8.20;;;;;;;5.83;62.10;100706.34;4901322;28;20962;-69
2022/12/26 10:34:21;;;;;;;15.02;7.78;;;;;;;5.61;63.00;100704.25;4907545;29;20490;-70
2022/12/26 10:37:06;;;;;;;15.10;7.03;;;;;;;5.79;62.06;100712.47;4898533;28;20044;-70
2022/12/26 10:39:44;;;;;;;16.90;7.57;;;;;;;5.55;63.22;100714.75;4883393;29;20031;-69
2022/12/26 10:42:24;;;;;;;20.17;8.07;;;;;;;5.60;62.62;100707.69;4906929;28;20140;-69
2022/12/26 10:44:50;;;;;;;15.60;7.05;;;;;;;5.46;63.27;100720.13;4904633;29;20032;-69
2022/12/26 10:47:24;;;;;;;12.80;7.32;;;;;;;5.56;62.59;100700.88;4904746;28;20778;-72
2022/12/26 10:49:51;;;;;;;15.02;7.05;;;;;;;5.73;62.49;100723.00;4905002;29;20047;-70
2022/12/26 10:52:20;;;;;;;9.43;5.78;;;;;;;5.50;62.74;100721.75;4896411;28;20051;-72
2022/12/26 10:54:52;;;;;;;9.50;5.78;;;;;;;5.57;62.11;100709.50;4884647;29;20123;-69
2022/12/26 10:57:18;;;;;;;7.97;4.35;;;;;;;5.41;62.67;100721.94;4892059;29;20043;-69
2022/12/26 10:59:47;;;;;;;6.97;4.65;;;;;;;5.90;60.75;100730.41;4907486;29;20035;-69
2022/12/26 11:02:22;;;;;;;8.48;2.97;;;;;;;4.74;62.57;100730.09;4884683;28;20120;-68
2022/12/26 11:04:57;;;;;;;7.22;2.70;;;;;;;5.44;60.77;100738.28;4876933;29;20511;-69
2022/12/26 11:07:26;;;;;;;3.05;2.20;;;;;;;5.33;59.72;100734.22;4893263;28;20138;-69
2022/12/26 11:09:57;;;;;;;3.53;1.02;;;;;;;5.29;58.76;100769.69;4905937;29;20039;-70
2022/12/26 11:12:28;;;;;;;2.78;1.20;;;;;;;4.89;57.98;100772.19;4899647;28;20050;-72
2022/12/26 11:15:01;;;;;;;8.90;1.55;;;;;;;5.49;56.55;100771.91;4936405;28;20027;-69
2022/12/26 11:17:30;;;;;;;8.32;1.50;;;;;;;5.16;57.46;100774.25;4906207;28;20067;-69
2022/12/26 11:20:12;;;;;;;6.25;0.57;;;;;;;5.80;55.40;100779.88;4908923;29;20893;-70
2022/12/26 11:22:38;;;;;;;5.43;0.88;;;;;;;5.03;57.08;100785.72;4906013;29;20481;-72
2022/12/26 11:25:06;;;;;;;6.78;0.88;;;;;;;4.94;57.36;100789.34;4908026;29;20043;-71
2022/12/26 11:27:32;;;;;;;4.75;0.70;;;;;;;4.31;58.52;100785.19;4905953;29;20129;-71
2022/12/26 11:30:12;;;;;;;11.77;0.70;;;;;;;4.37;58.72;100807.53;4907838;29;20889;-72
2022/12/26 11:32:39;;;;;;;3.35;1.35;;;;;;;4.59;58.40;100800.28;4898788;28;20161;-72
2022/12/26 11:35:05;;;;;;;8.13;0.50;;;;;;;4.75;57.94;100801.72;4921037;28;20023;-71
2022/12/26 11:37:40;;;;;;;10.77;1.10;;;;;;;4.42;59.32;100832.44;4903726;28;20055;-71
2022/12/26 11:40:15;;;;;;;4.32;0.50;;;;;;;4.50;59.59;100826.28;4910214;29;20382;-72
2022/12/26 11:42:40;;;;;;;4.40;0.20;;;;;;;4.33;60.33;100840.34;4877124;29;20609;-71
2022/12/26 11:45:11;;;;;;;6.80;0.40;;;;;;;3.88;62.16;100831.50;4889244;29;20084;-71
2022/12/26 11:47:41;;;;;;;4.43;0.45;;;;;;;4.35;60.83;100861.88;4890831;28;20055;-72
2022/12/26 11:50:16;;;;;;;10.32;1.05;;;;;;;3.42;62.88;100844.94;4920110;28;20036;-71
2022/12/26 11:52:50;;;;;;;8.85;0.80;;;;;;;4.06;61.32;100851.09;4891192;28;20057;-72
2022/12/26 11:55:22;;;;;;;8.00;0.75;;;;;;;4.49;59.79;100861.69;4913432;29;20122;-72
2022/12/26 11:58:16;;;;;;;5.07;0.47;;;;;;;4.79;59.12;100860.38;4893157;28;20054;-71
2022/12/26 12:00:50;;;;;;;7.07;0.63;;;;;;;4.62;58.47;100864.94;4908923;29;20059;-71
2022/12/26 12:03:17;;;;;;;9.25;1.38;;;;;;;4.90;57.17;100874.88;4907565;28;20056;-72
2022/12/26 12:06:00;;;;;;;11.40;1.70;;;;;;;4.79;57.08;100886.25;4906049;29;20035;-72
2022/12/26 12:08:31;;;;;;;25.58;0.95;;;;;;;5.09;55.94;100888.41;4906827;29;20048;-72
2022/12/26 12:11:01;;;;;;;10.43;0.70;;;;;;;4.34;56.65;100886.06;4902435;29;20054;-70
2022/12/26 12:13:47;;;;;;;4.10;0.30;;;;;;;4.36;56.58;100898.97;4903089;29;20048;-72
2022/12/26 12:16:32;;;;;;;7.43;0.40;;;;;;;4.36;57.23;100909.31;4907290;29;20040;-72
2022/12/26 12:19:15;;;;;;;11.07;0.73;;;;;;;4.28;57.30;100921.53;4906784;29;20040;-71
2022/12/26 12:22:14;;;;;;;12.35;1.48;;;;;;;4.24;57.20;100918.09;4906766;28;20313;-71
2022/12/26 12:24:51;;;;;;;8.50;0.40;;;;;;;3.58;59.37;100913.69;4896424;29;20047;-72
2022/12/26 12:27:35;;;;;;;3.00;0.22;;;;;;;3.51;59.92;100938.72;4907780;28;20060;-71
2022/12/26 12:30:23;;;;;;;10.05;1.05;;;;;;;4.44;57.53;100938.53;4909559;28;20035;-72
2022/12/26 12:32:55;;;;;;;6.70;0.47;;;;;;;4.66;56.06;100944.28;4904928;28;20043;-71
2022/12/26 12:36:02;;;;;;;4.60;0.28;;;;;;;4.33;56.64;100950.78;4907877;29;20032;-71
2022/12/26 12:38:30;;;;;;;2.13;0.30;;;;;;;3.89;57.89;100965.91;4907735;28;20043;-71
2022/12/26 12:41:07;;;;;;;3.83;0.28;;;;;;;4.38;56.77;100978.28;4913460;29;22079;-71
2022/12/26 12:43:44;;;;;;;6.63;0.85;;;;;;;3.59;58.46;100977.44;4908606;28;20043;-72
2022/12/26 12:46:30;;;;;;;4.00;0.25;;;;;;;3.80;58.23;100978.94;4912517;29;21139;-72
2022/12/26 12:49:11;;;;;;;4.22;0.95;;;;;;;3.93;57.08;100977.94;4911286;29;20047;-72
2022/12/26 12:51:55;;;;;;;14.48;0.93;;;;;;;3.81;56.73;100983.25;4907297;28;20075;-72
2022/12/26 12:54:58;;;;;;;1.65;0.20;;;;;;;3.68;56.75;100986.84;4909541;29;20039;-72
2022/12/26 12:57:50;;;;;;;7.43;0.13;;;;;;;3.67;56.57;101004.09;4910308;28;20162;-71
2022/12/26 13:00:32;;;;;;;1.17;0.10;;;;;;;3.39;58.16;101022.38;4907911;29;20051;-71
2022/12/26 13:03:24;;;;;;;1.20;0.15;;;;;;;3.63;58.35;100998.94;4911346;28;20215;-72
2022/12/26 13:06:03;;;;;;;4.20;0.10;;;;;;;3.28;59.07;101010.41;4910039;29;20051;-71
2022/12/26 13:08:38;;;;;;;7.32;0.30;;;;;;;3.19;58.60;101008.72;4909422;28;20557;-71
2022/12/26 13:11:17;;;;;;;6.03;0.25;;;;;;;3.88;57.21;101005.59;4913002;29;20080;-71
2022/12/26 13:13:50;;;;;;;8.23;0.40;;;;;;;4.12;55.88;101014.84;4911085;28;20082;-72
2022/12/26 13:16:21;;;;;;;4.70;0.75;;;;;;;3.57;56.65;101015.38;4910518;29;20027;-70
2022/12/26 13:19:10;;;;;;;4.60;0.22;;;;;;;4.16;54.75;101032.03;4908881;28;20035;-71
2022/12/26 13:21:39;;;;;;;5.82;0.28;;;;;;;4.04;54.82;101033.88;4887876;28;20043;-70
2022/12/26 13:24:25;;;;;;;7.82;1.02;;;;;;;4.27;54.66;101043.97;4936226;28;20051;-70
2022/12/26 13:27:05;;;;;;;4.03;0.20;;;;;;;4.21;53.69;101060.44;4910462;28;20649;-70
2022/12/26 13:29:38;;;;;;;11.60;0.68;;;;;;;3.83;53.36;101053.91;4911876;29;20102;-70
2022/12/26 13:32:21;;;;;;;5.88;0.40;;;;;;;3.94;52.57;101059.84;4909247;28;20745;-70
2022/12/26 13:34:47;;;;;;;5.20;0.60;;;;;;;3.44;51.76;101074.03;4909078;29;20075;-70
2022/12/26 13:37:31;;;;;;;12.82;0.88;;;;;;;4.17;51.08;101077.72;4895589;28;20233;-70
2022/12/26 13:39:59;;;;;;;5.93;0.50;;;;;;;4.59;49.32;101087.63;4943092;28;20044;-70
2022/12/26 13:45:34;;;;;;;6.13;1.00;;;;;;;4.25;47.93;101077.63;4910041;29;20070;-70
2022/12/26 13:48:00;;;;;;;5.55;0.82;;;;;;;4.41;48.14;101088.69;4909255;28;20055;-71
2022/12/26 13:50:52;;;;;;;12.15;1.83;;;;;;;4.86;47.50;101083.00;4906706;29;20067;-70
2022/12/26 13:53:23;;;;;;;6.53;1.00;;;;;;;3.96;48.51;101086.56;4911866;28;20045;-70
2022/12/26 13:55:51;;;;;;;10.32;1.27;;;;;;;3.59;49.29;101097.19;4906742;28;20032;-70